createdAt,value
2023-04-24T00:04:28.855Z,98790.69
2023-04-24T00:09:30.378Z,98787.22
2023-04-24T00:14:32.323Z,98782.28
2023-04-24T00:19:33.826Z,98787.44
2023-04-24T00:24:35.200Z,98813.34
2023-04-24T00:29:36.574Z,98809.53
2023-04-24T00:34:37.959Z,98801.59
2023-04-24T00:39:39.352Z,98800.81
2023-04-24T00:44:40.726Z,98792.09
2023-04-24T00:49:42.236Z,98793.44
2023-04-24T00:54:44.022Z,98791.53
2023-04-24T00:59:45.494Z,98788.56
2023-04-24T01:04:46.895Z,98783.06
2023-04-24T01:09:49.748Z,98783.88
2023-04-24T01:14:51.118Z,98784.47
2023-04-24T01:19:57.599Z,98802.44
2023-04-24T01:24:59.014Z,98795.59
2023-04-24T01:30:00.604Z,98800.81
2023-04-24T01:35:02.238Z,98798.63
2023-04-24T01:40:05.728Z,98799.97
2023-04-24T01:45:07.629Z,98798.09
2023-04-24T01:50:09.660Z,98785.00
2023-04-24T01:55:11.138Z,98784.50
2023-04-24T02:00:13.056Z,98784.47
2023-04-24T02:05:14.470Z,98783.06
2023-04-24T02:10:15.895Z,98781.97
2023-04-24T02:15:17.982Z,98774.31
2023-04-24T02:20:19.429Z,98779.53
2023-04-24T02:25:20.941Z,98778.44
2023-04-24T02:30:22.340Z,98785.78
2023-04-24T02:35:23.786Z,98781.69
2023-04-24T02:40:25.223Z,98781.69
2023-04-24T02:45:26.599Z,98781.97
2023-04-24T02:50:28.045Z,98776.81
2023-04-24T02:55:29.495Z,98773.25
2023-04-24T03:00:31.050Z,98778.72
2023-04-24T03:05:32.432Z,98780.31
2023-04-24T03:10:33.863Z,98780.31
2023-04-24T03:15:35.568Z,98776.81
2023-04-24T03:20:38.418Z,98768.88
2023-04-24T03:25:39.861Z,98772.44
2023-04-24T03:30:41.441Z,98777.59
2023-04-24T03:35:42.914Z,98779.78
2023-04-24T03:40:44.335Z,98781.97
2023-04-24T03:45:45.716Z,98788.50
2023-04-24T03:50:47.127Z,98777.34
2023-04-24T03:55:48.551Z,98794.22
2023-04-24T04:00:50.656Z,98799.69
2023-04-24T04:05:52.058Z,98809.75
2023-04-24T04:10:53.427Z,98811.44
2023-04-24T04:15:54.818Z,98810.31
2023-04-24T04:20:57.733Z,98805.69
2023-04-24T04:25:59.203Z,98812.84
2023-04-24T04:31:00.593Z,98812.31
2023-04-24T04:36:03.420Z,98809.59
2023-04-24T04:41:05.250Z,98806.09
2023-04-24T04:46:07.007Z,98807.47
2023-04-24T04:51:08.401Z,98806.94
2023-04-24T04:56:09.852Z,98805.59
2023-04-24T05:01:11.270Z,98822.25
2023-04-24T05:06:12.677Z,98825.53
2023-04-24T05:11:14.069Z,98821.19
2023-04-24T05:16:15.529Z,98816.84
2023-04-24T05:21:16.959Z,98828.03
2023-04-24T05:26:18.799Z,98822.03
2023-04-24T05:31:20.693Z,98822.09
2023-04-24T05:36:22.094Z,98819.34
2023-04-24T05:41:23.636Z,98829.44
2023-04-24T05:46:25.054Z,98817.47
2023-04-24T05:51:26.841Z,98817.16
2023-04-24T05:56:28.290Z,98819.06
2023-04-24T06:01:29.718Z,98833.84
2023-04-24T06:06:31.368Z,98832.47
2023-04-24T06:11:32.788Z,98820.47
2023-04-24T06:16:34.237Z,98827.84
2023-04-24T06:21:35.730Z,98836.03
2023-04-24T06:26:37.134Z,98835.00
2023-04-24T06:31:38.646Z,98843.75
2023-04-24T06:36:40.070Z,98848.16
2023-04-24T06:41:42.681Z,98847.63
2023-04-24T06:46:44.273Z,98827.97
2023-04-24T06:51:46.087Z,98838.34
2023-04-24T06:56:48.718Z,98842.72
2023-04-24T07:01:50.264Z,98837.53
2023-04-24T07:06:52.238Z,98855.81
2023-04-24T07:11:54.214Z,98851.47
2023-04-24T07:16:55.621Z,98848.75
2023-04-24T07:21:59.062Z,98858.59
2023-04-24T07:27:01.920Z,98858.28
2023-04-24T07:32:04.357Z,98858.03
2023-04-24T07:37:06.063Z,98860.22
2023-04-24T07:42:07.733Z,98854.47
2023-04-24T07:47:09.114Z,98857.78
2023-04-24T07:52:10.540Z,98860.53
2023-04-24T07:57:11.953Z,98861.59
2023-04-24T08:02:13.366Z,98869.25
2023-04-24T08:07:15.171Z,98862.69
2023-04-24T08:12:16.553Z,98861.59
2023-04-24T08:17:18.250Z,98871.97
2023-04-24T08:22:19.874Z,98868.72
2023-04-24T08:27:21.248Z,98862.16
2023-04-24T08:32:22.768Z,98870.59
2023-04-24T08:37:24.491Z,98876.66
2023-04-24T08:42:25.952Z,98883.75
2023-04-24T08:47:27.705Z,98882.94
2023-04-24T08:52:30.473Z,98880.75
2023-04-24T08:57:31.925Z,98884.03
2023-04-24T09:02:35.231Z,98883.75
2023-04-24T09:07:37.365Z,98880.47
2023-04-24T09:12:38.754Z,98879.94
2023-04-24T09:17:40.293Z,98891.13
2023-04-24T09:22:42.792Z,98881.84
2023-04-24T09:27:47.203Z,98884.28
2023-04-24T09:32:48.648Z,98891.41
2023-04-24T09:37:50.256Z,98880.47
2023-04-24T09:42:58.651Z,98882.66
2023-04-24T09:48:00.361Z,98893.31
2023-04-24T09:53:06.360Z,98878.00
2023-04-24T09:58:08.711Z,98888.13
2023-04-24T10:03:10.722Z,98877.47
2023-04-24T10:08:12.328Z,98870.38
2023-04-24T10:13:15.324Z,98887.56
2023-04-24T10:18:16.922Z,98879.38
2023-04-24T10:23:20.295Z,98874.44
2023-04-24T10:28:21.898Z,98872.56
2023-04-24T10:33:23.286Z,98864.03
2023-04-24T10:38:26.169Z,98849.56
2023-04-24T10:43:27.585Z,98864.03
2023-04-24T10:48:28.961Z,98860.25
2023-04-24T10:53:30.790Z,98863.53
2023-04-24T10:58:48.974Z,98867.88
2023-04-24T11:03:56.715Z,98872.28
2023-04-24T11:09:06.878Z,98880.16
2023-04-24T11:14:08.918Z,98881.81
2023-04-24T11:19:20.118Z,98879.91
2023-04-24T11:24:31.605Z,98883.19
2023-04-24T11:29:58.159Z,98884.56
2023-04-24T11:35:02.098Z,98900.09
2023-04-24T11:40:04.498Z,98888.63
2023-04-24T11:45:10.542Z,98882.88
2023-04-24T11:50:13.520Z,98876.06
2023-04-24T11:55:14.806Z,98873.03
2023-04-24T12:00:17.699Z,98879.63
2023-04-24T12:05:26.743Z,98875.53
2023-04-24T12:10:29.559Z,98879.88
2023-04-24T12:15:30.967Z,98887.81
2023-04-24T12:20:32.932Z,98891.34
2023-04-24T12:25:35.918Z,98901.47
2023-04-24T12:30:49.197Z,98891.88
2023-04-24T12:35:54.108Z,98888.34
2023-04-24T12:41:11.563Z,98888.09
2023-04-24T12:46:12.981Z,98896.28
2023-04-24T12:51:14.420Z,98916.25
2023-04-24T12:56:15.803Z,98894.13
2023-04-24T13:01:17.233Z,98894.69
2023-04-24T13:06:18.636Z,98893.03
2023-04-24T13:11:20.152Z,98864.31
2023-04-24T13:16:21.728Z,98873.34
2023-04-24T13:21:23.147Z,98871.72
2023-04-24T13:26:24.965Z,98892.75
2023-04-24T13:31:26.337Z,98887.56
2023-04-24T13:36:27.942Z,98910.25
2023-04-24T13:41:29.358Z,98887.81
2023-04-24T13:46:31.404Z,98887.81
2023-04-24T13:51:33.105Z,98891.09
2023-04-24T13:56:34.478Z,98892.44
2023-04-24T14:01:35.952Z,98900.09
2023-04-24T14:06:37.356Z,98875.47
2023-04-24T14:11:38.908Z,98889.97
2023-04-24T14:16:40.614Z,98872.47
2023-04-24T14:21:42.115Z,98876.28
2023-04-24T14:26:43.772Z,98874.41
2023-04-24T14:31:45.622Z,98878.53
2023-04-24T14:36:47.070Z,98874.19
2023-04-24T14:41:48.463Z,98871.16
2023-04-24T14:46:50.323Z,98869.53
2023-04-24T14:51:51.748Z,98877.44
2023-04-24T14:56:53.122Z,98883.47
2023-04-24T15:02:14.611Z,98888.09
2023-04-24T15:07:16.714Z,98892.19
2023-04-24T15:12:18.238Z,98907.75
2023-04-24T15:17:19.644Z,98899.56
2023-04-24T15:22:21.376Z,98907.22
2023-04-24T15:27:22.826Z,98912.94
2023-04-24T15:32:24.292Z,98914.56
2023-04-24T15:37:25.747Z,98912.66
2023-04-24T15:42:27.505Z,98921.69
2023-04-24T15:47:28.935Z,98928.50
2023-04-24T15:52:30.503Z,98938.34
2023-04-24T15:57:32.080Z,98931.25
2023-04-24T16:02:33.832Z,98941.34
2023-04-24T16:07:35.661Z,98936.13
2023-04-24T16:12:37.054Z,98937.78
2023-04-24T16:17:38.511Z,98949.53
2023-04-24T16:22:39.969Z,98939.97
2023-04-24T16:27:41.411Z,98951.69
2023-04-24T16:32:42.812Z,98973.31
2023-04-24T16:37:44.411Z,98974.91
2023-04-24T16:42:45.790Z,98991.06
2023-04-24T16:47:47.249Z,98985.84
2023-04-24T16:52:48.641Z,98988.84
2023-04-24T16:57:50.023Z,98986.97
2023-04-24T17:02:51.529Z,98995.09
2023-04-24T17:07:53.160Z,98989.38
2023-04-24T17:12:54.551Z,98988.03
2023-04-24T17:17:57.418Z,98985.59
2023-04-24T17:22:58.797Z,99007.09
2023-04-24T17:28:00.317Z,99021.59
2023-04-24T17:33:01.722Z,99024.84
2023-04-24T17:38:03.138Z,99036.59
2023-04-24T17:43:04.660Z,99042.88
2023-04-24T17:48:06.088Z,99049.16
2023-04-24T17:53:07.558Z,99056.53
2023-04-24T17:58:08.950Z,99070.97
2023-04-24T18:03:10.583Z,99082.72
2023-04-24T18:08:12.148Z,99084.09
2023-04-24T18:13:13.532Z,99089.84
2023-04-24T18:18:15.233Z,99095.84
2023-04-24T18:23:16.607Z,99111.38
2023-04-24T18:28:18.000Z,99113.81
2023-04-24T18:33:19.412Z,99122.31
2023-04-24T18:38:21.893Z,99125.03
2023-04-24T18:43:23.275Z,99132.38
2023-04-24T18:48:24.679Z,99139.22
2023-04-24T18:53:26.072Z,99150.66
2023-04-24T18:58:30.340Z,99159.91
2023-04-24T19:03:32.409Z,99174.38
2023-04-24T19:08:33.837Z,99175.19
2023-04-24T19:13:35.733Z,99178.41
2023-04-24T19:18:37.117Z,99180.31
2023-04-24T19:23:40.791Z,99178.16
2023-04-24T19:28:42.208Z,99188.47
2023-04-24T19:33:43.587Z,99196.97
2023-04-24T19:38:45.683Z,99186.81
2023-04-24T19:43:50.444Z,99206.19
2023-04-24T19:48:52.020Z,99195.84
2023-04-24T19:53:53.565Z,99182.97
2023-04-24T19:58:54.939Z,99187.09
2023-04-24T20:03:56.588Z,99192.25
2023-04-24T20:08:58.155Z,99193.06
2023-04-24T20:14:01.342Z,99195.81
2023-04-24T20:19:02.718Z,99204.00
2023-04-24T20:24:05.597Z,99203.38
2023-04-24T20:29:08.602Z,99202.84
2023-04-24T20:34:09.972Z,99211.03
2023-04-24T20:39:11.683Z,99215.94
2023-04-24T20:44:13.071Z,99210.47
2023-04-24T20:49:14.453Z,99207.75
2023-04-24T20:54:15.861Z,99213.47
2023-04-24T20:59:17.253Z,99208.50
2023-04-24T21:04:18.667Z,99226.31
2023-04-24T21:09:20.169Z,99227.09
2023-04-24T21:14:21.562Z,99225.72
2023-04-24T21:19:23.073Z,99218.13
2023-04-24T21:24:24.602Z,99225.72
2023-04-24T21:29:26.189Z,99227.06
2023-04-24T21:34:27.565Z,99222.44
2023-04-24T21:39:28.935Z,99215.63
2023-04-24T21:44:30.348Z,99200.84
2023-04-24T21:49:31.732Z,99200.59
2023-04-24T21:54:33.115Z,99200.84
2023-04-24T21:59:34.541Z,99200.59
2023-04-24T22:04:36.193Z,99190.19
2023-04-24T22:09:37.610Z,99184.22
2023-04-24T22:14:38.979Z,99186.13
2023-04-24T22:19:41.754Z,99182.31
2023-04-24T22:24:43.144Z,99179.84
2023-04-24T22:29:44.542Z,99192.94
2023-04-24T22:34:45.939Z,99191.28
2023-04-24T22:39:49.455Z,99184.47
2023-04-24T22:44:51.168Z,99189.38
2023-04-24T22:49:57.351Z,99183.06
2023-04-24T22:54:58.734Z,99188.53
2023-04-24T23:00:00.149Z,99200.25
2023-04-24T23:05:01.558Z,99202.47
2023-04-24T23:10:03.531Z,99200.50
2023-04-24T23:15:05.736Z,99210.88
2023-04-24T23:20:07.774Z,99210.38
2023-04-24T23:25:10.653Z,99205.75
2023-04-24T23:30:12.246Z,99201.69
2023-04-24T23:35:13.657Z,99197.59
2023-04-24T23:40:15.180Z,99188.66
2023-04-24T23:45:16.558Z,99183.75
2023-04-24T23:50:17.934Z,99182.41
2023-04-24T23:55:19.338Z,99180.25
